sensor_id;sensor_type;location;lat;lon;timestamp;P1;durP1;ratioP1;P2;durP2;ratioP2
47659;SDS011;33403;43.608;1.458;2023-04-25T00:00:44;4.72;;;3.55;;
47659;SDS011;33403;43.608;1.458;2023-04-25T00:03:10;5.80;;;3.80;;
47659;SDS011;33403;43.608;1.458;2023-04-25T00:05:35;4.90;;;4.00;;
47659;SDS011;33403;43.608;1.458;2023-04-25T00:08:02;5.88;;;3.90;;
47659;SDS011;33403;43.608;1.458;2023-04-25T00:10:28;6.18;;;3.78;;
47659;SDS011;33403;43.608;1.458;2023-04-25T00:12:54;5.60;;;3.60;;
47659;SDS011;33403;43.608;1.458;2023-04-25T00:15:20;5.25;;;3.70;;
47659;SDS011;33403;43.608;1.458;2023-04-25T00:17:45;6.20;;;3.60;;
47659;SDS011;33403;43.608;1.458;2023-04-25T00:20:12;5.60;;;3.60;;
47659;SDS011;33403;43.608;1.458;2023-04-25T00:22:37;4.25;;;3.45;;
47659;SDS011;33403;43.608;1.458;2023-04-25T00:25:04;4.43;;;3.50;;
47659;SDS011;33403;43.608;1.458;2023-04-25T00:27:31;4.63;;;3.25;;
47659;SDS011;33403;43.608;1.458;2023-04-25T00:29:57;4.80;;;3.40;;
47659;SDS011;33403;43.608;1.458;2023-04-25T00:32:22;5.40;;;3.25;;
47659;SDS011;33403;43.608;1.458;2023-04-25T00:34:48;5.30;;;3.72;;
47659;SDS011;33403;43.608;1.458;2023-04-25T00:37:14;4.57;;;3.30;;
47659;SDS011;33403;43.608;1.458;2023-04-25T00:39:39;5.25;;;3.30;;
47659;SDS011;33403;43.608;1.458;2023-04-25T00:42:05;5.55;;;3.78;;
47659;SDS011;33403;43.608;1.458;2023-04-25T00:44:31;4.00;;;3.53;;
47659;SDS011;33403;43.608;1.458;2023-04-25T00:46:58;6.15;;;3.40;;
47659;SDS011;33403;43.608;1.458;2023-04-25T00:49:26;4.85;;;3.50;;
47659;SDS011;33403;43.608;1.458;2023-04-25T00:51:52;4.82;;;3.60;;
47659;SDS011;33403;43.608;1.458;2023-04-25T00:54:18;4.18;;;3.22;;
47659;SDS011;33403;43.608;1.458;2023-04-25T00:56:44;5.53;;;3.40;;
47659;SDS011;33403;43.608;1.458;2023-04-25T00:59:10;4.63;;;3.42;;
47659;SDS011;33403;43.608;1.458;2023-04-25T01:01:37;6.80;;;3.80;;
47659;SDS011;33403;43.608;1.458;2023-04-25T01:04:05;4.38;;;3.60;;
47659;SDS011;33403;43.608;1.458;2023-04-25T01:06:31;5.65;;;3.47;;
47659;SDS011;33403;43.608;1.458;2023-04-25T01:08:57;4.43;;;3.35;;
47659;SDS011;33403;43.608;1.458;2023-04-25T01:11:24;4.57;;;3.42;;
47659;SDS011;33403;43.608;1.458;2023-04-25T01:13:50;4.78;;;3.60;;
47659;SDS011;33403;43.608;1.458;2023-04-25T01:16:16;4.63;;;3.20;;
47659;SDS011;33403;43.608;1.458;2023-04-25T01:18:41;4.38;;;3.40;;
47659;SDS011;33403;43.608;1.458;2023-04-25T01:21:08;4.18;;;3.40;;
47659;SDS011;33403;43.608;1.458;2023-04-25T01:23:35;5.25;;;3.38;;
47659;SDS011;33403;43.608;1.458;2023-04-25T01:26:03;4.72;;;3.10;;
47659;SDS011;33403;43.608;1.458;2023-04-25T01:28:29;3.92;;;3.08;;
47659;SDS011;33403;43.608;1.458;2023-04-25T01:30:55;3.67;;;2.88;;
47659;SDS011;33403;43.608;1.458;2023-04-25T01:33:21;3.97;;;2.88;;
47659;SDS011;33403;43.608;1.458;2023-04-25T01:35:47;5.97;;;3.30;;
47659;SDS011;33403;43.608;1.458;2023-04-25T01:38:13;3.70;;;2.42;;
47659;SDS011;33403;43.608;1.458;2023-04-25T01:40:40;2.95;;;2.22;;
47659;SDS011;33403;43.608;1.458;2023-04-25T01:43:06;2.60;;;2.22;;
47659;SDS011;33403;43.608;1.458;2023-04-25T01:45:36;3.28;;;1.83;;
47659;SDS011;33403;43.608;1.458;2023-04-25T01:48:04;2.20;;;1.80;;
47659;SDS011;33403;43.608;1.458;2023-04-25T01:50:30;1.80;;;1.70;;
47659;SDS011;33403;43.608;1.458;2023-04-25T01:52:56;1.60;;;1.50;;
47659;SDS011;33403;43.608;1.458;2023-04-25T01:55:22;1.70;;;1.60;;
47659;SDS011;33403;43.608;1.458;2023-04-25T01:57:47;1.60;;;1.50;;
47659;SDS011;33403;43.608;1.458;2023-04-25T02:00:13;1.50;;;1.40;;
47659;SDS011;33403;43.608;1.458;2023-04-25T02:02:39;1.42;;;1.20;;
47659;SDS011;33403;43.608;1.458;2023-04-25T02:05:05;3.50;;;1.20;;
47659;SDS011;33403;43.608;1.458;2023-04-25T02:07:31;1.00;;;1.00;;
47659;SDS011;33403;43.608;1.458;2023-04-25T02:09:57;1.30;;;1.20;;
47659;SDS011;33403;43.608;1.458;2023-04-25T02:12:23;1.58;;;1.30;;
47659;SDS011;33403;43.608;1.458;2023-04-25T02:14:49;1.20;;;1.10;;
47659;SDS011;33403;43.608;1.458;2023-04-25T02:17:15;1.25;;;1.10;;
47659;SDS011;33403;43.608;1.458;2023-04-25T02:19:41;2.17;;;1.30;;
47659;SDS011;33403;43.608;1.458;2023-04-25T02:22:06;1.30;;;1.20;;
47659;SDS011;33403;43.608;1.458;2023-04-25T02:24:32;2.13;;;1.30;;
47659;SDS011;33403;43.608;1.458;2023-04-25T02:26:58;2.25;;;1.27;;
47659;SDS011;33403;43.608;1.458;2023-04-25T02:29:24;1.23;;;1.10;;
47659;SDS011;33403;43.608;1.458;2023-04-25T02:31:50;1.58;;;1.10;;
47659;SDS011;33403;43.608;1.458;2023-04-25T02:34:15;1.30;;;1.20;;
47659;SDS011;33403;43.608;1.458;2023-04-25T02:36:41;0.98;;;0.98;;
47659;SDS011;33403;43.608;1.458;2023-04-25T02:39:07;1.20;;;1.08;;
47659;SDS011;33403;43.608;1.458;2023-04-25T02:41:32;0.93;;;0.90;;
47659;SDS011;33403;43.608;1.458;2023-04-25T02:43:58;1.10;;;1.00;;
47659;SDS011;33403;43.608;1.458;2023-04-25T02:46:24;1.15;;;1.00;;
47659;SDS011;33403;43.608;1.458;2023-04-25T02:48:49;0.95;;;0.95;;
47659;SDS011;33403;43.608;1.458;2023-04-25T02:51:15;1.00;;;0.90;;
47659;SDS011;33403;43.608;1.458;2023-04-25T02:53:41;1.00;;;0.90;;
47659;SDS011;33403;43.608;1.458;2023-04-25T02:56:07;1.55;;;1.10;;
47659;SDS011;33403;43.608;1.458;2023-04-25T02:58:32;1.23;;;0.98;;
47659;SDS011;33403;43.608;1.458;2023-04-25T03:00:58;0.85;;;0.85;;
47659;SDS011;33403;43.608;1.458;2023-04-25T03:03:24;0.90;;;0.90;;
47659;SDS011;33403;43.608;1.458;2023-04-25T03:05:50;0.80;;;0.80;;
47659;SDS011;33403;43.608;1.458;2023-04-25T03:08:16;0.70;;;0.70;;
47659;SDS011;33403;43.608;1.458;2023-04-25T03:10:43;0.80;;;0.80;;
47659;SDS011;33403;43.608;1.458;2023-04-25T03:13:09;1.50;;;0.90;;
47659;SDS011;33403;43.608;1.458;2023-04-25T03:15:35;0.90;;;0.90;;
47659;SDS011;33403;43.608;1.458;2023-04-25T03:18:01;0.88;;;0.88;;
47659;SDS011;33403;43.608;1.458;2023-04-25T03:20:27;0.90;;;0.90;;
47659;SDS011;33403;43.608;1.458;2023-04-25T03:22:53;2.65;;;0.90;;
47659;SDS011;33403;43.608;1.458;2023-04-25T03:25:19;0.95;;;0.82;;
47659;SDS011;33403;43.608;1.458;2023-04-25T03:27:44;1.85;;;1.00;;
47659;SDS011;33403;43.608;1.458;2023-04-25T03:30:10;1.63;;;1.00;;
47659;SDS011;33403;43.608;1.458;2023-04-25T03:32:36;0.90;;;0.90;;
47659;SDS011;33403;43.608;1.458;2023-04-25T03:35:02;1.25;;;0.93;;
47659;SDS011;33403;43.608;1.458;2023-04-25T03:37:28;1.73;;;0.90;;
47659;SDS011;33403;43.608;1.458;2023-04-25T03:39:54;0.80;;;0.80;;
47659;SDS011;33403;43.608;1.458;2023-04-25T03:42:19;1.02;;;0.90;;
47659;SDS011;33403;43.608;1.458;2023-04-25T03:44:47;0.98;;;0.88;;
47659;SDS011;33403;43.608;1.458;2023-04-25T03:47:14;1.15;;;0.80;;
47659;SDS011;33403;43.608;1.458;2023-04-25T03:49:39;0.90;;;0.90;;
47659;SDS011;33403;43.608;1.458;2023-04-25T03:52:06;0.95;;;0.95;;
47659;SDS011;33403;43.608;1.458;2023-04-25T03:54:32;0.80;;;0.80;;
47659;SDS011;33403;43.608;1.458;2023-04-25T03:56:57;0.93;;;0.93;;
47659;SDS011;33403;43.608;1.458;2023-04-25T03:59:23;1.60;;;1.10;;
47659;SDS011;33403;43.608;1.458;2023-04-25T04:01:51;1.35;;;0.80;;
47659;SDS011;33403;43.608;1.458;2023-04-25T04:04:17;1.23;;;0.90;;
47659;SDS011;33403;43.608;1.458;2023-04-25T04:06:43;1.02;;;0.80;;
47659;SDS011;33403;43.608;1.458;2023-04-25T04:09:08;1.95;;;0.90;;
47659;SDS011;33403;43.608;1.458;2023-04-25T04:11:36;0.90;;;0.90;;
47659;SDS011;33403;43.608;1.458;2023-04-25T04:14:03;1.02;;;0.98;;
47659;SDS011;33403;43.608;1.458;2023-04-25T04:16:32;1.23;;;0.98;;
47659;SDS011;33403;43.608;1.458;2023-04-25T04:18:58;0.98;;;0.98;;
47659;SDS011;33403;43.608;1.458;2023-04-25T04:21:24;1.02;;;1.00;;
47659;SDS011;33403;43.608;1.458;2023-04-25T04:23:49;1.25;;;0.90;;
47659;SDS011;33403;43.608;1.458;2023-04-25T04:26:15;1.95;;;1.10;;
47659;SDS011;33403;43.608;1.458;2023-04-25T04:28:41;1.30;;;1.20;;
47659;SDS011;33403;43.608;1.458;2023-04-25T04:31:09;1.50;;;1.00;;
47659;SDS011;33403;43.608;1.458;2023-04-25T04:33:40;1.17;;;1.08;;
47659;SDS011;33403;43.608;1.458;2023-04-25T04:36:06;1.25;;;1.20;;
47659;SDS011;33403;43.608;1.458;2023-04-25T04:38:32;1.00;;;1.00;;
47659;SDS011;33403;43.608;1.458;2023-04-25T04:40:58;1.85;;;1.25;;
47659;SDS011;33403;43.608;1.458;2023-04-25T04:43:24;1.10;;;1.00;;
47659;SDS011;33403;43.608;1.458;2023-04-25T04:45:50;1.05;;;0.90;;
47659;SDS011;33403;43.608;1.458;2023-04-25T04:48:16;1.10;;;1.10;;
47659;SDS011;33403;43.608;1.458;2023-04-25T04:50:44;1.15;;;1.10;;
47659;SDS011;33403;43.608;1.458;2023-04-25T04:53:10;2.03;;;1.10;;
47659;SDS011;33403;43.608;1.458;2023-04-25T04:55:36;1.83;;;1.10;;
47659;SDS011;33403;43.608;1.458;2023-04-25T04:58:02;1.52;;;1.10;;
47659;SDS011;33403;43.608;1.458;2023-04-25T05:00:28;1.17;;;1.08;;
47659;SDS011;33403;43.608;1.458;2023-04-25T05:02:54;1.23;;;1.13;;
47659;SDS011;33403;43.608;1.458;2023-04-25T05:05:20;1.20;;;1.10;;
47659;SDS011;33403;43.608;1.458;2023-04-25T05:07:46;2.25;;;1.42;;
47659;SDS011;33403;43.608;1.458;2023-04-25T05:10:12;1.63;;;1.20;;
47659;SDS011;33403;43.608;1.458;2023-04-25T05:12:38;2.22;;;1.10;;
47659;SDS011;33403;43.608;1.458;2023-04-25T05:15:03;1.40;;;1.30;;
47659;SDS011;33403;43.608;1.458;2023-04-25T05:17:29;1.60;;;1.40;;
47659;SDS011;33403;43.608;1.458;2023-04-25T05:19:55;1.83;;;1.40;;
47659;SDS011;33403;43.608;1.458;2023-04-25T05:22:22;2.20;;;1.20;;
47659;SDS011;33403;43.608;1.458;2023-04-25T05:24:48;1.30;;;1.20;;
47659;SDS011;33403;43.608;1.458;2023-04-25T05:27:16;1.50;;;1.40;;
47659;SDS011;33403;43.608;1.458;2023-04-25T05:29:42;1.55;;;1.45;;
47659;SDS011;33403;43.608;1.458;2023-04-25T05:32:08;1.67;;;1.50;;
47659;SDS011;33403;43.608;1.458;2023-04-25T05:34:34;2.47;;;1.60;;
47659;SDS011;33403;43.608;1.458;2023-04-25T05:37:00;1.50;;;1.40;;
47659;SDS011;33403;43.608;1.458;2023-04-25T05:39:26;2.38;;;1.60;;
47659;SDS011;33403;43.608;1.458;2023-04-25T05:41:51;1.42;;;1.30;;
47659;SDS011;33403;43.608;1.458;2023-04-25T05:44:17;1.60;;;1.50;;
47659;SDS011;33403;43.608;1.458;2023-04-25T05:46:43;3.50;;;1.40;;
47659;SDS011;33403;43.608;1.458;2023-04-25T05:49:09;1.60;;;1.50;;
47659;SDS011;33403;43.608;1.458;2023-04-25T05:51:34;2.70;;;1.60;;
47659;SDS011;33403;43.608;1.458;2023-04-25T05:54:00;2.10;;;1.50;;
47659;SDS011;33403;43.608;1.458;2023-04-25T05:56:26;2.63;;;1.50;;
47659;SDS011;33403;43.608;1.458;2023-04-25T05:58:51;1.50;;;1.40;;
47659;SDS011;33403;43.608;1.458;2023-04-25T06:01:17;2.38;;;1.60;;
47659;SDS011;33403;43.608;1.458;2023-04-25T06:03:43;1.75;;;1.65;;
47659;SDS011;33403;43.608;1.458;2023-04-25T06:06:09;2.38;;;1.80;;
47659;SDS011;33403;43.608;1.458;2023-04-25T06:08:34;2.03;;;1.58;;
47659;SDS011;33403;43.608;1.458;2023-04-25T06:11:00;1.75;;;1.65;;
47659;SDS011;33403;43.608;1.458;2023-04-25T06:13:26;2.08;;;1.52;;
47659;SDS011;33403;43.608;1.458;2023-04-25T06:15:52;2.40;;;1.85;;
47659;SDS011;33403;43.608;1.458;2023-04-25T06:18:17;2.92;;;1.60;;
47659;SDS011;33403;43.608;1.458;2023-04-25T06:20:43;1.70;;;1.58;;
47659;SDS011;33403;43.608;1.458;2023-04-25T06:23:08;1.55;;;1.45;;
47659;SDS011;33403;43.608;1.458;2023-04-25T06:25:34;3.90;;;1.60;;
47659;SDS011;33403;43.608;1.458;2023-04-25T06:28:00;1.70;;;1.48;;
47659;SDS011;33403;43.608;1.458;2023-04-25T06:30:25;2.78;;;1.60;;
47659;SDS011;33403;43.608;1.458;2023-04-25T06:32:51;2.10;;;1.85;;
47659;SDS011;33403;43.608;1.458;2023-04-25T06:35:18;3.45;;;1.80;;
47659;SDS011;33403;43.608;1.458;2023-04-25T06:37:44;2.17;;;1.50;;
47659;SDS011;33403;43.608;1.458;2023-04-25T06:40:09;1.70;;;1.60;;
47659;SDS011;33403;43.608;1.458;2023-04-25T06:42:36;1.35;;;1.25;;
47659;SDS011;33403;43.608;1.458;2023-04-25T06:45:01;2.65;;;1.73;;
47659;SDS011;33403;43.608;1.458;2023-04-25T06:47:27;2.25;;;1.60;;
47659;SDS011;33403;43.608;1.458;2023-04-25T06:49:54;1.70;;;1.40;;
47659;SDS011;33403;43.608;1.458;2023-04-25T06:52:20;3.08;;;1.77;;
47659;SDS011;33403;43.608;1.458;2023-04-25T06:54:46;1.92;;;1.70;;
47659;SDS011;33403;43.608;1.458;2023-04-25T06:57:11;3.30;;;1.58;;
47659;SDS011;33403;43.608;1.458;2023-04-25T06:59:37;7.63;;;2.67;;
47659;SDS011;33403;43.608;1.458;2023-04-25T07:02:03;2.55;;;1.77;;
47659;SDS011;33403;43.608;1.458;2023-04-25T07:04:29;1.52;;;1.30;;
47659;SDS011;33403;43.608;1.458;2023-04-25T07:06:55;1.30;;;1.20;;
47659;SDS011;33403;43.608;1.458;2023-04-25T07:09:21;1.38;;;1.27;;
47659;SDS011;33403;43.608;1.458;2023-04-25T07:11:47;1.50;;;1.40;;
47659;SDS011;33403;43.608;1.458;2023-04-25T07:14:13;1.20;;;1.10;;
47659;SDS011;33403;43.608;1.458;2023-04-25T07:16:38;2.40;;;1.30;;
47659;SDS011;33403;43.608;1.458;2023-04-25T07:19:04;1.30;;;1.20;;
47659;SDS011;33403;43.608;1.458;2023-04-25T07:21:30;1.73;;;1.30;;
47659;SDS011;33403;43.608;1.458;2023-04-25T07:23:56;0.90;;;0.90;;
47659;SDS011;33403;43.608;1.458;2023-04-25T07:26:22;0.77;;;0.77;;
47659;SDS011;33403;43.608;1.458;2023-04-25T07:28:48;1.60;;;1.20;;
47659;SDS011;33403;43.608;1.458;2023-04-25T07:31:15;0.70;;;0.70;;
47659;SDS011;33403;43.608;1.458;2023-04-25T07:33:44;0.60;;;0.60;;
47659;SDS011;33403;43.608;1.458;2023-04-25T07:36:10;0.80;;;0.75;;
47659;SDS011;33403;43.608;1.458;2023-04-25T07:38:37;2.92;;;0.80;;
47659;SDS011;33403;43.608;1.458;2023-04-25T07:41:03;0.70;;;0.70;;
47659;SDS011;33403;43.608;1.458;2023-04-25T07:43:29;1.33;;;0.95;;
47659;SDS011;33403;43.608;1.458;2023-04-25T07:45:55;1.90;;;1.00;;
47659;SDS011;33403;43.608;1.458;2023-04-25T07:48:21;1.67;;;0.95;;
47659;SDS011;33403;43.608;1.458;2023-04-25T07:50:47;1.00;;;1.00;;
47659;SDS011;33403;43.608;1.458;2023-04-25T07:53:13;1.77;;;1.00;;
47659;SDS011;33403;43.608;1.458;2023-04-25T07:55:39;1.08;;;1.00;;
47659;SDS011;33403;43.608;1.458;2023-04-25T07:58:07;0.80;;;0.80;;
47659;SDS011;33403;43.608;1.458;2023-04-25T08:00:33;1.17;;;1.02;;
47659;SDS011;33403;43.608;1.458;2023-04-25T08:02:59;1.20;;;1.00;;
47659;SDS011;33403;43.608;1.458;2023-04-25T08:05:25;1.27;;;1.17;;
47659;SDS011;33403;43.608;1.458;2023-04-25T08:07:51;1.60;;;1.10;;
47659;SDS011;33403;43.608;1.458;2023-04-25T08:10:17;1.25;;;0.90;;
47659;SDS011;33403;43.608;1.458;2023-04-25T08:12:42;0.93;;;0.90;;
47659;SDS011;33403;43.608;1.458;2023-04-25T08:15:08;1.17;;;1.10;;
47659;SDS011;33403;43.608;1.458;2023-04-25T08:17:34;2.35;;;1.02;;
47659;SDS011;33403;43.608;1.458;2023-04-25T08:20:00;1.98;;;1.00;;
47659;SDS011;33403;43.608;1.458;2023-04-25T08:22:28;2.08;;;0.90;;
47659;SDS011;33403;43.608;1.458;2023-04-25T08:24:54;0.90;;;0.90;;
47659;SDS011;33403;43.608;1.458;2023-04-25T08:27:20;1.05;;;0.93;;
47659;SDS011;33403;43.608;1.458;2023-04-25T08:29:46;0.90;;;0.90;;
47659;SDS011;33403;43.608;1.458;2023-04-25T08:32:12;1.50;;;0.90;;
47659;SDS011;33403;43.608;1.458;2023-04-25T08:34:37;1.00;;;1.00;;
47659;SDS011;33403;43.608;1.458;2023-04-25T08:37:07;0.98;;;0.98;;
47659;SDS011;33403;43.608;1.458;2023-04-25T08:39:34;1.85;;;1.23;;
47659;SDS011;33403;43.608;1.458;2023-04-25T08:42:01;1.65;;;1.10;;
47659;SDS011;33403;43.608;1.458;2023-04-25T08:44:31;1.00;;;1.00;;
47659;SDS011;33403;43.608;1.458;2023-04-25T08:47:00;1.20;;;1.10;;
47659;SDS011;33403;43.608;1.458;2023-04-25T08:49:33;1.52;;;0.90;;
47659;SDS011;33403;43.608;1.458;2023-04-25T08:52:00;1.42;;;1.30;;
47659;SDS011;33403;43.608;1.458;2023-04-25T08:54:28;1.00;;;0.90;;
47659;SDS011;33403;43.608;1.458;2023-04-25T08:56:56;1.20;;;1.10;;
47659;SDS011;33403;43.608;1.458;2023-04-25T08:59:23;1.85;;;1.38;;
47659;SDS011;33403;43.608;1.458;2023-04-25T09:01:49;1.92;;;1.05;;
47659;SDS011;33403;43.608;1.458;2023-04-25T09:04:15;1.10;;;1.00;;
47659;SDS011;33403;43.608;1.458;2023-04-25T09:06:41;0.80;;;0.80;;
47659;SDS011;33403;43.608;1.458;2023-04-25T09:09:07;1.02;;;0.90;;
47659;SDS011;33403;43.608;1.458;2023-04-25T09:11:35;0.90;;;0.90;;
47659;SDS011;33403;43.608;1.458;2023-04-25T09:14:11;1.27;;;1.10;;
47659;SDS011;33403;43.608;1.458;2023-04-25T09:17:11;1.17;;;1.08;;
47659;SDS011;33403;43.608;1.458;2023-04-25T09:19:33;1.15;;;1.05;;
47659;SDS011;33403;43.608;1.458;2023-04-25T09:22:04;1.63;;;1.10;;
47659;SDS011;33403;43.608;1.458;2023-04-25T09:27:06;1.30;;;1.20;;
47659;SDS011;33403;43.608;1.458;2023-04-25T09:29:33;2.00;;;0.90;;
47659;SDS011;33403;43.608;1.458;2023-04-25T09:34:48;1.83;;;0.90;;
47659;SDS011;33403;43.608;1.458;2023-04-25T09:37:19;1.05;;;0.98;;
47659;SDS011;33403;43.608;1.458;2023-04-25T09:39:49;0.95;;;0.95;;
47659;SDS011;33403;43.608;1.458;2023-04-25T09:42:17;0.90;;;0.90;;
47659;SDS011;33403;43.608;1.458;2023-04-25T09:44:43;1.70;;;1.15;;
47659;SDS011;33403;43.608;1.458;2023-04-25T09:47:11;1.25;;;0.95;;
47659;SDS011;33403;43.608;1.458;2023-04-25T09:49:41;2.25;;;1.00;;
47659;SDS011;33403;43.608;1.458;2023-04-25T09:52:07;2.38;;;1.30;;
47659;SDS011;33403;43.608;1.458;2023-04-25T09:54:34;2.08;;;1.20;;
47659;SDS011;33403;43.608;1.458;2023-04-25T09:59:55;7.68;;;1.40;;
47659;SDS011;33403;43.608;1.458;2023-04-25T10:02:24;1.63;;;1.13;;
47659;SDS011;33403;43.608;1.458;2023-04-25T10:04:52;1.67;;;1.10;;
47659;SDS011;33403;43.608;1.458;2023-04-25T10:07:20;1.20;;;1.10;;
47659;SDS011;33403;43.608;1.458;2023-04-25T10:09:50;10.88;;;2.35;;
47659;SDS011;33403;43.608;1.458;2023-04-25T10:12:24;5.38;;;1.52;;
47659;SDS011;33403;43.608;1.458;2023-04-25T10:14:51;8.35;;;1.98;;
47659;SDS011;33403;43.608;1.458;2023-04-25T10:17:17;5.00;;;1.60;;
47659;SDS011;33403;43.608;1.458;2023-04-25T10:19:46;5.60;;;1.40;;
47659;SDS011;33403;43.608;1.458;2023-04-25T10:22:35;3.35;;;1.13;;
47659;SDS011;33403;43.608;1.458;2023-04-25T10:25:06;14.65;;;3.03;;
47659;SDS011;33403;43.608;1.458;2023-04-25T10:27:33;11.90;;;2.10;;
47659;SDS011;33403;43.608;1.458;2023-04-25T10:30:09;5.40;;;1.52;;
47659;SDS011;33403;43.608;1.458;2023-04-25T10:32:41;6.97;;;1.50;;
47659;SDS011;33403;43.608;1.458;2023-04-25T10:35:11;2.97;;;1.63;;
47659;SDS011;33403;43.608;1.458;2023-04-25T10:37:37;1.50;;;1.40;;
47659;SDS011;33403;43.608;1.458;2023-04-25T10:40:09;4.15;;;1.90;;
47659;SDS011;33403;43.608;1.458;2023-04-25T10:42:35;5.75;;;1.92;;
47659;SDS011;33403;43.608;1.458;2023-04-25T10:45:04;1.50;;;1.40;;
47659;SDS011;33403;43.608;1.458;2023-04-25T10:47:34;2.30;;;1.58;;
47659;SDS011;33403;43.608;1.458;2023-04-25T10:50:05;1.58;;;1.45;;
47659;SDS011;33403;43.608;1.458;2023-04-25T10:52:33;2.28;;;1.55;;
47659;SDS011;33403;43.608;1.458;2023-04-25T10:54:59;2.38;;;1.60;;
47659;SDS011;33403;43.608;1.458;2023-04-25T10:57:44;1.60;;;1.50;;
47659;SDS011;33403;43.608;1.458;2023-04-25T11:00:19;2.17;;;1.42;;
47659;SDS011;33403;43.608;1.458;2023-04-25T11:03:08;3.78;;;1.30;;
47659;SDS011;33403;43.608;1.458;2023-04-25T11:05:33;2.95;;;2.03;;
47659;SDS011;33403;43.608;1.458;2023-04-25T11:08:01;2.70;;;2.00;;
47659;SDS011;33403;43.608;1.458;2023-04-25T11:10:29;1.83;;;1.60;;
47659;SDS011;33403;43.608;1.458;2023-04-25T11:12:56;2.35;;;1.30;;
47659;SDS011;33403;43.608;1.458;2023-04-25T11:15:25;1.75;;;1.40;;
47659;SDS011;33403;43.608;1.458;2023-04-25T11:17:51;1.63;;;1.50;;
47659;SDS011;33403;43.608;1.458;2023-04-25T11:20:18;1.35;;;1.20;;
47659;SDS011;33403;43.608;1.458;2023-04-25T11:22:44;1.30;;;1.20;;
47659;SDS011;33403;43.608;1.458;2023-04-25T11:25:11;2.38;;;1.70;;
47659;SDS011;33403;43.608;1.458;2023-04-25T11:27:39;1.70;;;1.30;;
47659;SDS011;33403;43.608;1.458;2023-04-25T11:30:18;2.50;;;1.30;;
47659;SDS011;33403;43.608;1.458;2023-04-25T11:32:45;1.38;;;1.27;;
47659;SDS011;33403;43.608;1.458;2023-04-25T11:35:11;1.42;;;1.27;;
47659;SDS011;33403;43.608;1.458;2023-04-25T11:37:40;2.08;;;1.05;;
47659;SDS011;33403;43.608;1.458;2023-04-25T11:40:07;2.25;;;1.10;;
47659;SDS011;33403;43.608;1.458;2023-04-25T11:42:36;1.00;;;1.00;;
47659;SDS011;33403;43.608;1.458;2023-04-25T11:45:03;1.67;;;1.00;;
47659;SDS011;33403;43.608;1.458;2023-04-25T11:47:30;0.90;;;0.90;;
47659;SDS011;33403;43.608;1.458;2023-04-25T11:49:57;1.60;;;0.90;;
47659;SDS011;33403;43.608;1.458;2023-04-25T11:52:37;1.88;;;1.13;;
47659;SDS011;33403;43.608;1.458;2023-04-25T11:55:08;1.30;;;1.20;;
47659;SDS011;33403;43.608;1.458;2023-04-25T11:57:41;1.48;;;1.08;;
47659;SDS011;33403;43.608;1.458;2023-04-25T12:00:12;1.95;;;1.00;;
47659;SDS011;33403;43.608;1.458;2023-04-25T12:02:40;1.42;;;1.10;;
47659;SDS011;33403;43.608;1.458;2023-04-25T12:05:07;1.50;;;1.30;;
47659;SDS011;33403;43.608;1.458;2023-04-25T12:07:34;1.35;;;1.25;;
47659;SDS011;33403;43.608;1.458;2023-04-25T12:10:03;1.40;;;1.30;;
47659;SDS011;33403;43.608;1.458;2023-04-25T12:12:34;1.40;;;1.30;;
47659;SDS011;33403;43.608;1.458;2023-04-25T12:15:10;2.25;;;1.42;;
47659;SDS011;33403;43.608;1.458;2023-04-25T12:17:38;3.22;;;2.55;;
47659;SDS011;33403;43.608;1.458;2023-04-25T12:20:15;2.45;;;1.80;;
47659;SDS011;33403;43.608;1.458;2023-04-25T12:22:44;1.63;;;1.50;;
47659;SDS011;33403;43.608;1.458;2023-04-25T12:25:11;2.60;;;1.48;;
47659;SDS011;33403;43.608;1.458;2023-04-25T12:27:38;3.10;;;1.70;;
47659;SDS011;33403;43.608;1.458;2023-04-25T12:30:07;1.60;;;1.50;;
47659;SDS011;33403;43.608;1.458;2023-04-25T12:32:33;2.20;;;1.70;;
47659;SDS011;33403;43.608;1.458;2023-04-25T12:35:00;2.33;;;1.63;;
47659;SDS011;33403;43.608;1.458;2023-04-25T12:37:26;1.50;;;1.40;;
47659;SDS011;33403;43.608;1.458;2023-04-25T12:39:53;2.40;;;1.50;;
47659;SDS011;33403;43.608;1.458;2023-04-25T12:42:19;3.05;;;1.63;;
47659;SDS011;33403;43.608;1.458;2023-04-25T12:44:44;2.97;;;1.50;;
47659;SDS011;33403;43.608;1.458;2023-04-25T12:47:11;3.92;;;1.67;;
47659;SDS011;33403;43.608;1.458;2023-04-25T12:49:37;3.90;;;1.80;;
47659;SDS011;33403;43.608;1.458;2023-04-25T12:52:02;3.38;;;1.70;;
47659;SDS011;33403;43.608;1.458;2023-04-25T12:54:28;4.90;;;1.83;;
47659;SDS011;33403;43.608;1.458;2023-04-25T12:56:54;2.72;;;1.50;;
47659;SDS011;33403;43.608;1.458;2023-04-25T12:59:20;2.22;;;1.70;;
47659;SDS011;33403;43.608;1.458;2023-04-25T13:01:46;2.10;;;1.95;;
47659;SDS011;33403;43.608;1.458;2023-04-25T13:04:12;2.13;;;1.92;;
47659;SDS011;33403;43.608;1.458;2023-04-25T13:06:37;1.80;;;1.70;;
47659;SDS011;33403;43.608;1.458;2023-04-25T13:09:03;2.13;;;1.95;;
47659;SDS011;33403;43.608;1.458;2023-04-25T13:11:29;1.73;;;1.60;;
47659;SDS011;33403;43.608;1.458;2023-04-25T13:13:55;1.65;;;1.55;;
47659;SDS011;33403;43.608;1.458;2023-04-25T13:16:21;1.88;;;1.50;;
47659;SDS011;33403;43.608;1.458;2023-04-25T13:18:47;2.17;;;1.95;;
47659;SDS011;33403;43.608;1.458;2023-04-25T13:21:13;1.92;;;1.70;;
47659;SDS011;33403;43.608;1.458;2023-04-25T13:23:38;2.22;;;1.70;;
47659;SDS011;33403;43.608;1.458;2023-04-25T13:26:05;2.63;;;1.85;;
47659;SDS011;33403;43.608;1.458;2023-04-25T13:28:31;2.03;;;1.92;;
47659;SDS011;33403;43.608;1.458;2023-04-25T13:30:56;2.17;;;1.90;;
47659;SDS011;33403;43.608;1.458;2023-04-25T13:33:23;2.55;;;1.90;;
47659;SDS011;33403;43.608;1.458;2023-04-25T13:35:48;2.28;;;1.85;;
47659;SDS011;33403;43.608;1.458;2023-04-25T13:38:24;2.30;;;1.88;;
47659;SDS011;33403;43.608;1.458;2023-04-25T13:40:50;1.77;;;1.67;;
47659;SDS011;33403;43.608;1.458;2023-04-25T13:43:20;1.85;;;1.50;;
47659;SDS011;33403;43.608;1.458;2023-04-25T13:45:46;6.03;;;2.05;;
47659;SDS011;33403;43.608;1.458;2023-04-25T13:48:13;5.57;;;1.92;;
47659;SDS011;33403;43.608;1.458;2023-04-25T13:50:39;3.45;;;1.50;;
47659;SDS011;33403;43.608;1.458;2023-04-25T13:53:05;1.40;;;1.17;;
47659;SDS011;33403;43.608;1.458;2023-04-25T13:55:30;5.28;;;1.83;;
47659;SDS011;33403;43.608;1.458;2023-04-25T13:57:56;2.97;;;1.60;;
47659;SDS011;33403;43.608;1.458;2023-04-25T14:00:22;2.50;;;1.40;;
47659;SDS011;33403;43.608;1.458;2023-04-25T14:02:48;2.47;;;1.50;;
47659;SDS011;33403;43.608;1.458;2023-04-25T14:05:14;2.95;;;1.50;;
47659;SDS011;33403;43.608;1.458;2023-04-25T14:07:40;4.15;;;1.50;;
47659;SDS011;33403;43.608;1.458;2023-04-25T14:10:05;1.95;;;1.60;;
47659;SDS011;33403;43.608;1.458;2023-04-25T14:12:32;1.50;;;1.40;;
47659;SDS011;33403;43.608;1.458;2023-04-25T14:14:57;3.03;;;1.45;;
47659;SDS011;33403;43.608;1.458;2023-04-25T14:17:23;1.50;;;1.30;;
47659;SDS011;33403;43.608;1.458;2023-04-25T14:19:49;2.30;;;1.20;;
47659;SDS011;33403;43.608;1.458;2023-04-25T14:22:15;1.35;;;1.25;;
47659;SDS011;33403;43.608;1.458;2023-04-25T14:24:41;2.42;;;1.40;;
47659;SDS011;33403;43.608;1.458;2023-04-25T14:27:07;1.60;;;1.13;;
47659;SDS011;33403;43.608;1.458;2023-04-25T14:29:32;1.20;;;1.10;;
47659;SDS011;33403;43.608;1.458;2023-04-25T14:31:58;1.50;;;1.40;;
47659;SDS011;33403;43.608;1.458;2023-04-25T14:34:25;1.50;;;1.40;;
47659;SDS011;33403;43.608;1.458;2023-04-25T14:36:51;2.67;;;1.60;;
47659;SDS011;33403;43.608;1.458;2023-04-25T14:39:17;2.03;;;1.50;;
47659;SDS011;33403;43.608;1.458;2023-04-25T14:41:43;1.75;;;1.55;;
47659;SDS011;33403;43.608;1.458;2023-04-25T14:44:09;1.65;;;1.55;;
47659;SDS011;33403;43.608;1.458;2023-04-25T14:46:35;4.28;;;1.30;;
47659;SDS011;33403;43.608;1.458;2023-04-25T14:49:01;1.60;;;1.50;;
47659;SDS011;33403;43.608;1.458;2023-04-25T14:51:27;1.60;;;1.40;;
47659;SDS011;33403;43.608;1.458;2023-04-25T14:53:52;2.55;;;1.70;;